Terminal Aerodrome Forecast
Issued by NWS Green Bay, WI

Home | Current Version | Previous Version | Graphics & Text | Print | Product List | Glossary On
Versions: 1 2 3 4 5 6 7 8 9 10 11 12 13 14 15 16 17 18 19 20 21 22 23 24 25 26 27 28 29 30 31 32 33 34
443
FTUS43 KGRB 200955 AAA
TAFGRB
TAF AMD
KGRB 200955Z 2010/2106 23004KT 2SM BR SKC
      TEMPO 2010/2012 1/2SM FG FEW005
     FM201300 21005KT P6SM FEW250
     FM201700 21008KT P6SM SCT250
     FM202000 19010KT P6SM SCT040 BKN120=

USA.gov is the U.S. government's official web portal to all federal, state and local government web resources and services.